| time (UTC) | temp F | wind direction | speed MPH | gust MPH | rain 1hr in | rain 24hr in | rain mn in | humidity % | barometer mb |
| 20260906200326 | 55 | 0.0 | 0.0 | 0.00 | 0.00 | 0.00 | 59 | 1027.9 | |
| 20260906195326 | 55 | 0.0 | 0.0 | 0.00 | 0.00 | 0.00 | 58 | 1028.1 | |
| 20260906194326 | 55 | 0.0 | 0.0 | 0.00 | 0.00 | 0.00 | 58 | 1028.0 | |
| 20260906192102 | 56 | 0.0 | 0.0 | 0.00 | 0.00 | 0.00 | 58 | 1028.1 | |
| 20260906191102 | 56 | 0.0 | 0.0 | 0.00 | 0.00 | 0.00 | 57 | 1028.2 | |
| 20260906183615 | 56 | 0.0 | 0.0 | 0.00 | 0.00 | 0.00 | 56 | 1027.9 | |
| 20260906182616 | 56 | 0.0 | 0.0 | 0.00 | 0.00 | 0.00 | 55 | 1027.9 | |
| 20260906180352 | 57 | 0.0 | 0.0 | 0.00 | 0.00 | 0.00 | 54 | 1027.9 | |
| 20260906174128 | 58 | 0.0 | 0.0 | 0.00 | 0.00 | 0.00 | 52 | 1027.7 | |
| 20260906173128 | 58 | 0.0 | 0.0 | 0.00 | 0.00 | 0.00 | 50 | 1027.7 | |
| 20260906172128 | 60 | 0.0 | 0.0 | 0.00 | 0.00 | 0.00 | 47 | 1027.6 | |
| 20260906165905 | 62 | 0.0 | 0.0 | 0.00 | 0.00 | 0.00 | 44 | 1027.4 | |
| 20260906163641 | 63 | 0.0 | 0.0 | 0.00 | 0.00 | 0.00 | 42 | 1027.4 | |
| 20260906162641 | 64 | 0.0 | 0.0 | 0.00 | 0.00 | 0.00 | 41 | 1027.3 | |
| 20260906161641 | 65 | 0.0 | 0.0 | 0.00 | 0.00 | 0.00 | 39 | 1027.3 | |
| 20260906155420 | 65 | 0.0 | 0.0 | 0.00 | 0.00 | 0.00 | 40 | 1027.3 | |
| 20260906154417 | 66 | 0.0 | 0.0 | 0.00 | 0.00 | 0.00 | 38 | 1027.3 | |
| 20260906153417 | 65 | 0.0 | 0.0 | 0.00 | 0.00 | 0.00 | 39 | 1027.3 | |
| 20260906152417 | 66 | 0.0 | 0.0 | 0.00 | 0.00 | 0.00 | 39 | 1027.4 | |
| 20260906151418 | 67 | 0.0 | 0.0 | 0.00 | 0.00 | 0.00 | 38 | 1027.4 | |
| 20260906145153 | 66 | 0.0 | 0.0 | 0.00 | 0.00 | 0.00 | 37 | 1027.3 | |
| 20260906144153 | 66 | 0.0 | 0.0 | 0.00 | 0.00 | 0.00 | 38 | 1027.4 | |
| 20260906143153 | 66 | 0.0 | 0.0 | 0.00 | 0.00 | 0.00 | 40 | 1027.4 | |
| 20260906142154 | 65 | 0.0 | 0.0 | 0.00 | 0.00 | 0.00 | 39 | 1027.3 | |
| 20260906141153 | 67 | 0.0 | 0.0 | 0.00 | 0.00 | 0.00 | 38 | 1027.3 | |
| 20260906140153 | 65 | 0.0 | 0.0 | 0.00 | 0.00 | 0.00 | 40 | 1027.3 | |
| 20260906135153 | 66 | 0.0 | 0.0 | 0.00 | 0.00 | 0.00 | 40 | 1027.2 | |
| 20260906134153 | 64 | 0.0 | 0.0 | 0.00 | 0.00 | 0.00 | 41 | 1027.2 | |
| 20260906133153 | 66 | 0.0 | 0.0 | 0.00 | 0.00 | 0.00 | 40 | 1027.2 | |
| 20260906132153 | 67 | 0.0 | 0.0 | 0.00 | 0.00 | 0.00 | 39 | 1027.3 | |
| 20260906131154 | 67 | 0.0 | 0.0 | 0.00 | 0.00 | 0.00 | 39 | 1027.3 | |
| 20260906130153 | 66 | 0.0 | 0.0 | 0.00 | 0.00 | 0.00 | 39 | 1027.3 | |
| 20260906125153 | 65 | 0.0 | 0.0 | 0.00 | 0.00 | 0.00 | 41 | 1027.3 | |
| 20260906124153 | 66 | 0.0 | 0.0 | 0.00 | 0.00 | 0.00 | 42 | 1027.3 | |
| 20260906123153 | 65 | 0.0 | 0.0 | 0.00 | 0.00 | 0.00 | 42 | 1027.3 | |
| 20260906122153 | 62 | 0.0 | 0.0 | 0.00 | 0.00 | 0.00 | 41 | 1027.4 | |
| 20260906121153 | 65 | 0.0 | 0.0 | 0.00 | 0.00 | 0.00 | 41 | 1027.4 | |
| 20260906120153 | 64 | 0.0 | 0.0 | 0.00 | 0.00 | 0.00 | 42 | 1027.6 | |
| 20260906113930 | 65 | 0.0 | 0.0 | 0.00 | 0.00 | 0.00 | 42 | 1027.6 | |
| 20260906111702 | 64 | 0.0 | 0.0 | 0.00 | 0.00 | 0.00 | 44 | 1027.7 | |
| 20260906110702 | 61 | 0.0 | 0.0 | 0.00 | 0.00 | 0.00 | 46 | 1027.7 | |
| 20260906105702 | 64 | 0.0 | 0.0 | 0.00 | 0.00 | 0.00 | 44 | 1027.8 | |
| 20260906104702 | 61 | 0.0 | 0.0 | 0.00 | 0.00 | 0.00 | 48 | 1027.8 | |
| 20260906103702 | 62 | 0.0 | 0.0 | 0.00 | 0.00 | 0.00 | 46 | 1028.0 | |
| 20260906102702 | 60 | 0.0 | 0.0 | 0.00 | 0.00 | 0.00 | 48 | 1027.9 | |
| 20260906101706 | 59 | 0.0 | 0.0 | 0.00 | 0.00 | 0.00 | 51 | 1028.0 | |
| 20260906100702 | 61 | 0.0 | 0.0 | 0.00 | 0.00 | 0.00 | 50 | 1028.1 | |
| 20260906095702 | 61 | 0.0 | 0.0 | 0.00 | 0.00 | 0.00 | 52 | 1028.0 | |
| 20260906094702 | 59 | 0.0 | 0.0 | 0.00 | 0.00 | 0.00 | 54 | 1028.1 | |
| 20260906093702 | 58 | 0.0 | 0.0 | 0.00 | 0.00 | 0.00 | 55 | 1028.1 | |
| 20260906092702 | 59 | 0.0 | 0.0 | 0.00 | 0.00 | 0.00 | 54 | 1028.1 | |
| 20260906091703 | 58 | 0.0 | 0.0 | 0.00 | 0.00 | 0.00 | 56 | 1028.1 | |
| 20260906090702 | 57 | 0.0 | 0.0 | 0.00 | 0.00 | 0.00 | 58 | 1028.2 | |
| 20260906085702 | 57 | 0.0 | 0.0 | 0.00 | 0.00 | 0.00 | 57 | 1028.0 | |
| 20260906084702 | 57 | 0.0 | 0.0 | 0.00 | 0.00 | 0.00 | 60 | 1027.9 | |
| 20260906083702 | 59 | 0.0 | 0.0 | 0.00 | 0.00 | 0.00 | 58 | 1028.0 | |
| 20260906082702 | 59 | 0.0 | 0.0 | 0.00 | 0.00 | 0.00 | 60 | 1027.9 | |
| 20260906081702 | 57 | 0.0 | 0.0 | 0.00 | 0.00 | 0.00 | 61 | 1027.7 | |
| 20260906080702 | 57 | 0.0 | 0.0 | 0.00 | 0.00 | 0.00 | 64 | 1027.8 | |
| 20260906075702 | 56 | 0.0 | 0.0 | 0.00 | 0.00 | 0.00 | 64 | 1027.6 | |
| 20260906074702 | 56 | 0.0 | 0.0 | 0.00 | 0.00 | 0.00 | 64 | 1027.6 | |
| 20260906073702 | 57 | 0.0 | 0.0 | 0.00 | 0.00 | 0.00 | 65 | 1027.6 | |
| 20260906072702 | 56 | 0.0 | 0.0 | 0.00 | 0.00 | 0.00 | 65 | 1027.4 | |
| 20260906071703 | 57 | 0.0 | 0.0 | 0.00 | 0.00 | 0.00 | 65 | 1027.3 | |
| 20260906070703 | 56 | 0.0 | 0.0 | 0.00 | 0.00 | 0.00 | 68 | 1027.2 | |
| 20260906064438 | 55 | 0.0 | 0.0 | 0.00 | 0.00 | 0.00 | 69 | 1027.0 | |
| 20260906063439 | 54 | 0.0 | 0.0 | 0.00 | 0.00 | 0.00 | 72 | 1026.9 | |
| 20260906062439 | 52 | 0.0 | 0.0 | 0.00 | 0.00 | 0.00 | 73 | 1027.0 | |
| 20260906060215 | 51 | 0.0 | 0.0 | 0.00 | 0.00 | 0.00 | 75 | 1026.8 | |
| 20260906055215 | 51 | 0.0 | 0.0 | 0.00 | 0.00 | 0.00 | 76 | 1026.8 | |
| 20260906054215 | 51 | 0.0 | 0.0 | 0.00 | 0.00 | 0.00 | 75 | 1026.8 | |
| 20260906053215 | 51 | 0.0 | 0.0 | 0.00 | 0.00 | 0.00 | 76 | 1026.6 | |
| 20260906050951 | 51 | 0.0 | 0.0 | 0.00 | 0.00 | 0.00 | 75 | 1026.5 | |
| 20260906045951 | 51 | 0.0 | 0.0 | 0.00 | 0.00 | 0.00 | 77 | 1026.4 | |
| 20260906044951 | 51 | 0.0 | 0.0 | 0.00 | 0.00 | 0.00 | 77 | 1026.2 | |
| 20260906043951 | 50 | 0.0 | 0.0 | 0.00 | 0.00 | 0.00 | 78 | 1026.2 | |
| 20260906042951 | 50 | 0.0 | 0.0 | 0.00 | 0.00 | 0.00 | 77 | 1026.1 | |
| 20260906041952 | 51 | 0.0 | 0.0 | 0.00 | 0.00 | 0.00 | 77 | 1026.0 | |
| 20260906040951 | 51 | 0.0 | 0.0 | 0.00 | 0.00 | 0.00 | 76 | 1025.9 | |
| 20260906034726 | 51 | 0.0 | 0.0 | 0.00 | 0.00 | 0.00 | 76 | 1025.8 | |
| 20260906033726 | 51 | 0.0 | 0.0 | 0.00 | 0.00 | 0.00 | 75 | 1025.8 | |
| 20260906032727 | 51 | 0.0 | 0.0 | 0.00 | 0.00 | 0.00 | 75 | 1025.6 | |
| 20260906031727 | 51 | 0.0 | 0.0 | 0.00 | 0.00 | 0.00 | 74 | 1025.6 | |
| 20260906030727 | 51 | 0.0 | 0.0 | 0.00 | 0.00 | 0.00 | 74 | 1025.5 | |
| 20260906025727 | 52 | 0.0 | 0.0 | 0.00 | 0.00 | 0.00 | 73 | 1025.4 | |
| 20260906024727 | 52 | 0.0 | 0.0 | 0.00 | 0.00 | 0.00 | 73 | 1025.4 | |
| 20260906023727 | 52 | 0.0 | 0.0 | 0.00 | 0.00 | 0.00 | 73 | 1025.3 | |
| 20260906022727 | 52 | 0.0 | 0.0 | 0.00 | 0.00 | 0.00 | 73 | 1025.2 | |
| 20260906021727 | 52 | 0.0 | 0.0 | 0.00 | 0.00 | 0.00 | 72 | 1025.2 | |
| 20260906020726 | 52 | 0.0 | 0.0 | 0.00 | 0.00 | 0.00 | 71 | 1025.1 | |
| 20260906015726 | 52 | 0.0 | 0.0 | 0.00 | 0.00 | 0.00 | 70 | 1025.0 | |
| 20260906014727 | 53 | 0.0 | 0.0 | 0.00 | 0.00 | 0.00 | 70 | 1025.0 | |
| 20260906013727 | 53 | 0.0 | 0.0 | 0.00 | 0.00 | 0.00 | 70 | 1024.9 | |
| 20260906012727 | 53 | 0.0 | 0.0 | 0.00 | 0.00 | 0.00 | 70 | 1024.9 | |
| 20260906005239 | 53 | 0.0 | 0.0 | 0.00 | 0.00 | 0.00 | 69 | 1024.8 | |
| 20260906004239 | 53 | 0.0 | 0.0 | 0.00 | 0.00 | 0.00 | 68 | 1024.8 | |
| 20260906003239 | 53 | 0.0 | 0.0 | 0.00 | 0.00 | 0.00 | 68 | 1024.7 | |
| 20260906002239 | 53 | 0.0 | 0.0 | 0.00 | 0.00 | 0.00 | 67 | 1024.7 | |
| 20260906001239 | 54 | 0.0 | 0.0 | 0.00 | 0.00 | 0.00 | 66 | 1024.5 | |
| 20260906000241 | 54 | 0.0 | 0.0 | 0.00 | 0.00 | 0.00 | 66 | 1024.5 | |
| 20260905235239 | 54 | 0.0 | 0.0 | 0.00 | 0.00 | 0.00 | 65 | 1024.4 | |
| 20260905234239 | 55 | 0.0 | 0.0 | 0.00 | 0.00 | 0.00 | 65 | 1024.3 | |
| 20260905233239 | 55 | 0.0 | 0.0 | 0.00 | 0.00 | 0.00 | 64 | 1024.3 | |
| 20260905232239 | 55 | 0.0 | 0.0 | 0.00 | 0.00 | 0.00 | 63 | 1024.2 | |
| 20260905231239 | 55 | 0.0 | 0.0 | 0.00 | 0.00 | 0.00 | 63 | 1024.1 | |
| 20260905230239 | 55 | 0.0 | 0.0 | 0.00 | 0.00 | 0.00 | 64 | 1024.0 | |
| 20260905225239 | 55 | 0.0 | 0.0 | 0.00 | 0.00 | 0.00 | 64 | 1023.9 | |
| 20260905224239 | 55 | 0.0 | 0.0 | 0.00 | 0.00 | 0.00 | 63 | 1024.0 | |
| 20260905223239 | 55 | 0.0 | 0.0 | 0.00 | 0.00 | 0.00 | 63 | 1024.0 | |
| 20260905214529 | 57 | 0.0 | 0.0 | 0.00 | 0.00 | 0.00 | 61 | 1023.8 | |
| 20260905213529 | 57 | 0.0 | 0.0 | 0.00 | 0.00 | 0.00 | 61 | 1023.7 | |
| 20260905212528 | 57 | 0.0 | 0.0 | 0.00 | 0.00 | 0.00 | 61 | 1023.6 | |
| 20260905211533 | 57 | 0.0 | 0.0 | 0.00 | 0.00 | 0.00 | 60 | 1023.4 | |
| 20260905210529 | 58 | 0.0 | 0.0 | 0.00 | 0.00 | 0.00 | 60 | 1023.3 | |
| 20260905204305 | 59 | 0.0 | 0.0 | 0.00 | 0.00 | 0.00 | 59 | 1023.2 | |
| 20260905203305 | 59 | 0.0 | 0.0 | 0.00 | 0.00 | 0.00 | 58 | 1023.1 | |
| 20260905201041 | 59 | 0.0 | 0.0 | 0.00 | 0.00 | 0.00 | 57 | 1022.9 |